• Join FlightAware (Why Join?)
  • Login
  • US Flag 
07:46PM EDT


 

Airport Tracker/Info


-or-


 

Live Flight TrackerFlight Track Log ✈ VH-NAN ✈ 25-Jul-2013 ✈ YWRC - YPJT / JAD

Flight Track Log - Related Links

Times and Time Zones

All times are in EDT time to prevent confusion due to time zone crossing. See the VH-NAN flight status page for this flight to view local times or setup timezone preferences in your user account.

Time Position Orientation Groundspeed Altitude Reporting Facility
EDT Latitude Longitude Course Direction KTS MPH feet Rate Location/Type
03:42AM -32.3304 117.6979 279° West 4,500  Level Aus ATC (Calculated)
03:42AM -32.0556 115.7682 327° Northwest 116 133 1,400 -1,980 Descending Aus ATC (RADAR)
03:43AM -32.0336 115.7512 327° Northwest 104 120 1,500 -120 Climbing Aus ATC (RADAR)
03:44AM -32.0181 115.7547 11° North 86 99 -240 Descending Aus ATC (RADAR)
03:44AM -32.0097 115.7745 63° Northeast 95 109 1,200 720 Climbing Aus ATC (RADAR)
03:46AM -31.9997 115.8054 69° East 92 106 1,300  Climbing Aus ATC (RADAR)
03:46AM -31.9874 115.8235 51° Northeast 90 104 1,300  Level Aus ATC (RADAR)
03:47AM -31.9765 115.8375 48° Northeast 96 110 1,300 60 Level Aus ATC (RADAR)
03:48AM -31.9701 115.8656 75° East 106 122 1,400  Climbing Aus ATC (RADAR)
03:49AM -31.9537 115.8831 42° Northeast 102 117 1,300  Descending Aus ATC (RADAR)
03:49AM -31.9446 115.8610 296° West 94 108 1,400 60 Climbing Aus ATC (RADAR)
03:50AM -31.9364 115.8406 295° West 81 93 1,400 -60 Level Aus ATC (RADAR)
03:51AM -31.9312 115.8172 285° West 87 100 1,300 -120 Descending Aus ATC (RADAR)
03:55AM -31.9669 115.6792 127° Southeast 4,500 780 Climbing Aus ATC (Calculated)
03:57AM -31.9942 115.7214 127° Southeast  Level Estimated
03:57AM -31.9856 115.6120 103° East 4,500  Level Aus ATC (Calculated)
03:58AM -32.0115 115.7480 127° Southeast  Level Estimated
03:59AM -31.9986 115.6431 116° Southeast  Level Estimated
03:59AM -32.0136 115.6792 116° Southeast 100  Level Aus ATC (Calculated)
04:01AM -32.0320 115.7234 116° Southeast  Level Estimated
04:01AM -32.0136 115.6792 116° Southeast 100  Level Aus ATC (Calculated)
04:02AM -32.0555 115.7802 116° Southeast 100  Level Aus ATC (Calculated)
04:04AM -32.0714 115.8183 116° Southeast  Level Estimated
04:05AM -32.0839 115.8485 116° Southeast  Level Estimated
04:05AM -32.0765 115.8307 116° Southeast 100  Level Aus ATC (Calculated)
04:05AM -32.0870 115.8559 116° Southeast 100  Level Aus ATC (Calculated)
04:07AM -32.0975 115.8811 116° Southeast  Level Estimated
04:08AM -32.0975 115.8811 90° East  Level Estimated
04:09AM -32.0975 115.8811 90° East  Level Estimated
04:10AM -32.0975 115.8811 90° East  Level Estimated
04:11AM -32.0975 115.8811 90° East  Level Estimated
04:12AM -32.0975 115.8811 90° East  Level Estimated
04:13AM -32.0975 115.8811 90° East  Level Estimated
04:14AM -32.0975 115.8811 90° East  Level Estimated
04:15AM -32.0975 115.8811 90° East  Level Estimated
04:16AM -32.0975 115.8811 90° East  Level Estimated
04:17AM -32.0975 115.8811 90° East  Level Estimated
04:18AM -32.0975 115.8811 90° East  Level Estimated
04:19AM -32.0975 115.8811 90° East  Level Estimated
04:20AM -32.0975 115.8811 90° East  Level Estimated
04:21AM -32.0975 115.8811 90° East  Level Estimated
04:22AM -32.0975 115.8811 90° East  Level Estimated
04:23AM -32.0975 115.8811 90° East  Level Estimated
04:24AM -32.0975 115.8811 90° East  Level Estimated
04:25AM -32.0975 115.8811 90° East  Level Estimated
04:26AM -32.0975 115.8811 90° East  Level Estimated
04:27AM -32.0975 115.8811 90° East  Level Estimated
04:28AM -32.0975 115.8811 90° East  Level Estimated
04:29AM -32.0975 115.8811 90° East  Level Estimated
04:30AM -32.0975 115.8811 90° East  Level Estimated
04:31AM -32.0975 115.8811 90° East  Level Estimated
04:32AM -32.0975 115.8811 90° East  Level Estimated
04:33AM -32.0975 115.8811 90° East  Level Estimated
04:34AM -32.0975 115.8811 90° East  Level Estimated
04:35AM -32.0975 115.8811 90° East  Level Estimated
04:36AM -32.0975 115.8811 90° East  Level Estimated
04:37AM -32.0975 115.8811 90° East  Level Estimated
04:38AM -32.0975 115.8811 90° East  Level Estimated
04:39AM -32.0975 115.8811 90° East  Level Estimated
04:40AM -32.0975 115.8811 90° East  Level Estimated
04:41AM -32.0975 115.8811 90° East  Level Estimated
04:42AM -32.0975 115.8811 90° East  Level Estimated
04:43AM -32.0975 115.8811 90° East  Level Estimated
04:44AM -32.0975 115.8811 90° East  Level Estimated
04:45AM -32.0975 115.8811 90° East  Level Estimated
04:46AM -32.0975 115.8811 90° East  Level Estimated
04:47AM -32.0975 115.8811 90° East  Level Estimated
04:48AM -32.0975 115.8811 90° East  Level Estimated
04:49AM -32.0975 115.8811 90° East  Level Estimated
04:50AM -32.0975 115.8811 90° East  Level Estimated
04:51AM -32.0975 115.8811 90° East  Level Estimated
04:52AM -32.0975 115.8811 90° East  Level Estimated
04:53AM -32.0975 115.8811 90° East  Level Estimated
04:54AM -32.0975 115.8811 90° East  Level Estimated
04:55AM -32.0975 115.8811 90° East  Level Estimated
04:56AM -32.0975 115.8811 90° East  Level Estimated
04:57AM -32.0975 115.8811 90° East  Level Estimated
04:58AM -32.0975 115.8811 90° East  Level Estimated
04:59AM -32.0975 115.8811 90° East  Level Estimated
05:00AM -32.0975 115.8811 90° East  Level Estimated
05:01AM -32.0975 115.8811 90° East  Level Estimated
05:02AM -32.0975 115.8811 90° East  Level Estimated
05:03AM -32.0975 115.8811 90° East  Level Estimated